Time;durP1;ratioP1;P1;durP2;ratioP2;P2;SDS_P1;SDS_P2;PMS_P1;PMS_P2;Temp;Humidity;BMP_temperature;BMP_pressure;BME280_temperature;BME280_humidity;BME280_pressure;Samples;Min_cycle;Max_cycle;Signal;HPM_P1;HPM_P2
2023/12/13 00:02:04;;;;;;;10.52;2.20;;;;;;;9.65;100.00;99655.69;5202700;28;20107;-77
2023/12/13 00:04:35;;;;;;;16.60;2.88;;;;;;;9.65;100.00;99653.03;5202383;28;20022;-76
2023/12/13 00:07:06;;;;;;;12.85;2.33;;;;;;;9.62;100.00;99648.03;5220772;28;20087;-76
2023/12/13 00:09:37;;;;;;;15.55;2.33;;;;;;;9.60;100.00;99642.88;5201872;28;20468;-76
2023/12/13 00:12:08;;;;;;;18.30;2.33;;;;;;;9.58;100.00;99643.03;5202760;28;20116;-76
2023/12/13 00:14:38;;;;;;;17.63;2.75;;;;;;;9.60;100.00;99640.19;5204380;28;20104;-76
2023/12/13 00:17:10;;;;;;;13.90;2.63;;;;;;;9.60;100.00;99629.47;5205975;28;20036;-76
2023/12/13 00:19:41;;;;;;;11.40;2.30;;;;;;;9.61;100.00;99636.50;5204547;28;20088;-76
2023/12/13 00:22:12;;;;;;;10.40;2.47;;;;;;;9.62;100.00;99640.00;5202446;28;20021;-76
2023/12/13 00:24:42;;;;;;;13.90;2.33;;;;;;;9.56;100.00;99638.91;5203887;28;20026;-76
2023/12/13 00:27:12;;;;;;;18.17;2.88;;;;;;;9.60;100.00;99634.84;5205152;28;20021;-76
2023/12/13 00:29:43;;;;;;;17.05;2.85;;;;;;;9.59;100.00;99635.88;5207531;28;20017;-76
2023/12/13 00:32:13;;;;;;;16.85;2.55;;;;;;;9.58;100.00;99636.84;5204882;28;20507;-76
2023/12/13 00:34:44;;;;;;;14.43;2.05;;;;;;;9.60;100.00;99634.84;5210062;28;20027;-76
2023/12/13 00:37:15;;;;;;;17.75;2.35;;;;;;;9.56;100.00;99633.56;5212057;28;20079;-76
2023/12/13 00:39:45;;;;;;;16.45;2.72;;;;;;;9.58;100.00;99632.31;5208880;28;20022;-76
2023/12/13 00:42:16;;;;;;;18.23;3.15;;;;;;;9.58;100.00;99631.50;5208301;28;20013;-76
2023/12/13 00:44:47;;;;;;;19.00;2.45;;;;;;;9.56;100.00;99639.72;5210304;28;20603;-76
2023/12/13 00:47:17;;;;;;;22.23;3.47;;;;;;;9.59;100.00;99631.34;5206954;28;20026;-76
2023/12/13 00:49:48;;;;;;;13.82;2.78;;;;;;;9.64;100.00;99635.28;5209584;28;20078;-76
2023/12/13 00:52:18;;;;;;;21.02;2.78;;;;;;;9.62;100.00;99627.44;5210540;28;20029;-76
2023/12/13 00:54:49;;;;;;;19.02;2.85;;;;;;;9.56;100.00;99626.34;5210273;28;20032;-76
2023/12/13 00:57:19;;;;;;;18.65;2.60;;;;;;;9.64;100.00;99629.91;5202936;28;20101;-76
2023/12/13 00:59:49;;;;;;;20.40;2.50;;;;;;;9.70;100.00;99623.81;5209542;28;20497;-76
2023/12/13 01:02:20;;;;;;;19.27;2.75;;;;;;;9.74;100.00;99622.41;5208176;28;20025;-76
2023/12/13 01:04:50;;;;;;;20.63;3.10;;;;;;;9.78;100.00;99619.16;5214123;28;20021;-76
2023/12/13 01:07:21;;;;;;;26.95;3.38;;;;;;;9.75;100.00;99626.75;5206401;28;20048;-76
2023/12/13 01:09:51;;;;;;;18.05;2.90;;;;;;;9.80;100.00;99624.34;5205432;28;20495;-76
2023/12/13 01:12:22;;;;;;;15.07;2.90;;;;;;;9.95;100.00;99621.59;5204354;28;20017;-76
2023/12/13 01:14:53;;;;;;;16.73;2.45;;;;;;;10.03;100.00;99626.81;5209711;28;20024;-76
2023/12/13 01:17:23;;;;;;;15.88;2.88;;;;;;;10.04;100.00;99626.63;5206607;28;20100;-76
2023/12/13 01:19:54;;;;;;;21.40;3.75;;;;;;;10.04;100.00;99620.41;5207961;28;20029;-76
2023/12/13 01:22:24;;;;;;;15.82;3.58;;;;;;;10.07;100.00;99620.88;5207913;28;20074;-76
2023/12/13 01:24:55;;;;;;;11.05;2.70;;;;;;;10.06;100.00;99623.75;5206742;28;20021;-76
2023/12/13 01:27:25;;;;;;;12.52;2.70;;;;;;;10.06;100.00;99629.13;5209954;28;20384;-76
2023/12/13 01:29:55;;;;;;;17.42;2.95;;;;;;;10.05;100.00;99622.94;5205184;28;20033;-76
2023/12/13 01:32:26;;;;;;;18.05;3.08;;;;;;;10.07;100.00;99623.53;5212063;28;20021;-76
2023/12/13 01:34:56;;;;;;;19.58;2.85;;;;;;;10.11;100.00;99622.16;5204573;28;20645;-76
2023/12/13 01:37:27;;;;;;;27.80;3.78;;;;;;;10.16;100.00;99618.06;5211354;28;20025;-76
2023/12/13 01:39:58;;;;;;;23.83;3.50;;;;;;;10.12;100.00;99620.28;5205796;28;20395;-76
2023/12/13 01:42:28;;;;;;;20.45;3.17;;;;;;;10.13;100.00;99620.09;5208718;28;20037;-76
2023/12/13 01:44:59;;;;;;;19.55;2.95;;;;;;;10.20;100.00;99616.66;5206156;28;20071;-76
2023/12/13 01:47:29;;;;;;;27.42;4.10;;;;;;;10.22;100.00;99631.50;5222427;28;20025;-76
2023/12/13 01:50:00;;;;;;;25.85;3.30;;;;;;;10.22;100.00;99630.69;5204830;28;20506;-76
2023/12/13 01:52:31;;;;;;;21.52;3.28;;;;;;;10.26;100.00;99630.13;5212205;28;20485;-76
2023/12/13 01:55:02;;;;;;;17.15;2.80;;;;;;;10.35;100.00;99628.16;5204995;28;20479;-76
2023/12/13 01:57:33;;;;;;;20.17;3.05;;;;;;;10.25;100.00;99622.31;5204644;28;20032;-76
2023/12/13 02:00:04;;;;;;;14.85;3.20;;;;;;;10.34;100.00;99623.78;5208230;28;20368;-76
2023/12/13 02:02:34;;;;;;;23.35;3.25;;;;;;;10.26;100.00;99622.09;5211106;28;20132;-76
2023/12/13 02:05:07;;;;;;;19.13;3.22;;;;;;;10.30;100.00;99622.56;5206795;28;20036;-76
2023/12/13 02:07:38;;;;;;;13.95;2.85;;;;;;;10.18;100.00;99616.00;5209753;28;20508;-76
2023/12/13 02:10:08;;;;;;;27.35;4.03;;;;;;;10.30;100.00;99622.56;5205750;28;20021;-76
2023/12/13 02:12:50;;;;;;;17.85;2.67;;;;;;;10.36;100.00;99622.59;5211178;28;20033;-76
2023/12/13 02:15:22;;;;;;;17.60;3.00;;;;;;;10.36;100.00;99619.09;5206213;28;20063;-76
2023/12/13 02:17:53;;;;;;;11.90;2.63;;;;;;;10.43;100.00;99619.13;5209237;28;20067;-76
2023/12/13 02:20:24;;;;;;;17.55;3.85;;;;;;;10.35;100.00;99610.22;5209097;28;20257;-76
2023/12/13 02:22:55;;;;;;;19.85;3.78;;;;;;;10.36;100.00;99613.72;5210785;28;20378;-76
2023/12/13 02:25:37;;;;;;;18.20;2.67;;;;;;;10.39;100.00;99613.31;5207443;28;20384;-76
2023/12/13 02:28:15;;;;;;;26.35;3.10;;;;;;;10.40;100.00;99603.44;5206239;28;20053;-76
2023/12/13 02:30:46;;;;;;;26.98;3.72;;;;;;;10.40;100.00;99601.59;5209539;28;20032;-76
2023/12/13 02:33:33;;;;;;;22.00;3.53;;;;;;;10.30;100.00;99599.25;5200090;28;20017;-76
2023/12/13 02:36:05;;;;;;;21.55;4.03;;;;;;;10.40;100.00;99609.63;5207893;28;20025;-76
2023/12/13 02:38:36;;;;;;;21.05;3.63;;;;;;;10.40;100.00;99601.59;5205857;28;20100;-77
2023/12/13 02:41:07;;;;;;;19.65;2.78;;;;;;;10.42;100.00;99606.75;5206159;28;20040;-77
2023/12/13 02:43:38;;;;;;;17.52;3.13;;;;;;;10.39;100.00;99607.94;5207302;28;20036;-77
2023/12/13 02:46:09;;;;;;;21.92;3.45;;;;;;;10.41;100.00;99600.56;5207551;28;20035;-77
2023/12/13 02:48:39;;;;;;;34.50;5.05;;;;;;;10.41;100.00;99610.47;5207644;28;20249;-76
2023/12/13 02:51:09;;;;;;;26.88;3.65;;;;;;;10.35;100.00;99604.03;5202423;28;20016;-76
2023/12/13 02:53:40;;;;;;;27.67;3.65;;;;;;;10.37;100.00;99607.34;5209266;28;20021;-76
2023/12/13 02:56:11;;;;;;;18.67;3.25;;;;;;;10.31;100.00;99597.41;5205856;28;20021;-76
2023/12/13 02:58:42;;;;;;;18.65;3.08;;;;;;;10.34;100.00;99594.31;5204194;28;20025;-76
2023/12/13 03:01:12;;;;;;;25.95;2.95;;;;;;;10.26;100.00;99597.97;5207753;28;20028;-76
2023/12/13 03:03:43;;;;;;;17.58;2.90;;;;;;;10.33;100.00;99598.84;5207511;28;20443;-77
2023/12/13 03:06:14;;;;;;;14.90;3.00;;;;;;;10.29;100.00;99594.06;5208653;28;20036;-76
2023/12/13 03:08:44;;;;;;;25.70;3.03;;;;;;;10.36;100.00;99595.78;5207037;28;20017;-77
2023/12/13 03:11:15;;;;;;;24.80;3.92;;;;;;;10.29;100.00;99592.25;5205993;28;20381;-76
2023/12/13 03:13:46;;;;;;;19.02;3.20;;;;;;;10.37;100.00;99593.94;5206935;28;20379;-77
2023/12/13 03:16:16;;;;;;;19.27;3.40;;;;;;;10.38;100.00;99592.91;5202051;28;20400;-77
2023/12/13 03:18:47;;;;;;;21.30;3.53;;;;;;;10.29;100.00;99588.69;5207516;28;20100;-75
2023/12/13 03:21:17;;;;;;;17.58;3.05;;;;;;;10.31;100.00;99584.81;5207391;28;20049;-77
2023/12/13 03:23:48;;;;;;;30.13;3.25;;;;;;;10.34;100.00;99587.13;5203012;28;20111;-77
2023/12/13 03:26:19;;;;;;;20.20;3.78;;;;;;;10.33;100.00;99577.41;5204181;28;20028;-77
2023/12/13 03:28:50;;;;;;;25.95;3.67;;;;;;;10.36;100.00;99576.19;5208782;28;20029;-77
2023/12/13 03:31:20;;;;;;;24.45;3.28;;;;;;;10.29;100.00;99581.50;5206007;28;20381;-77
2023/12/13 03:33:51;;;;;;;21.45;2.95;;;;;;;10.30;100.00;99579.66;5208442;28;20059;-77
2023/12/13 03:36:21;;;;;;;16.98;3.22;;;;;;;10.33;100.00;99577.41;5205962;28;20476;-77
2023/12/13 03:38:52;;;;;;;18.67;3.97;;;;;;;10.34;100.00;99572.84;5207825;28;20064;-77
2023/12/13 03:41:23;;;;;;;22.63;3.50;;;;;;;10.23;100.00;99570.69;5206291;28;20036;-77
2023/12/13 03:43:54;;;;;;;22.48;3.20;;;;;;;10.23;100.00;99566.16;5206699;28;20025;-77
2023/12/13 03:46:24;;;;;;;23.48;3.80;;;;;;;10.18;100.00;99568.59;5204082;28;20041;-77
2023/12/13 03:48:55;;;;;;;20.90;2.78;;;;;;;10.16;100.00;99565.28;5206248;28;20018;-77
2023/12/13 03:51:25;;;;;;;18.42;3.20;;;;;;;10.17;100.00;99566.94;5204354;28;20028;-77
2023/12/13 03:53:56;;;;;;;28.48;3.53;;;;;;;10.13;100.00;99565.66;5204988;28;20091;-76
2023/12/13 03:56:29;;;;;;;19.58;3.00;;;;;;;10.16;100.00;99564.47;5209005;28;20028;-77
2023/12/13 03:58:59;;;;;;;16.42;2.92;;;;;;;10.10;100.00;99566.06;5198378;28;20037;-77
2023/12/13 04:01:30;;;;;;;24.48;3.47;;;;;;;10.06;100.00;99559.44;5208973;28;20500;-77
2023/12/13 04:04:00;;;;;;;20.13;2.92;;;;;;;10.10;100.00;99558.03;5202519;28;20057;-77
2023/12/13 04:06:31;;;;;;;29.20;3.17;;;;;;;10.11;100.00;99563.19;5209446;28;20021;-77
2023/12/13 04:09:02;;;;;;;23.13;3.40;;;;;;;10.11;100.00;99560.50;5204115;28;20024;-77
2023/12/13 04:11:33;;;;;;;18.98;3.22;;;;;;;9.98;100.00;99559.56;5207334;28;20477;-77
2023/12/13 04:14:03;;;;;;;25.65;5.40;;;;;;;10.08;100.00;99568.09;5205909;28;20033;-77
2023/12/13 04:16:34;;;;;;;32.83;3.45;;;;;;;10.08;100.00;99560.88;5207525;28;20022;-76
2023/12/13 04:19:04;;;;;;;24.48;2.95;;;;;;;10.12;100.00;99556.81;5206382;28;20112;-77
2023/12/13 04:21:35;;;;;;;17.75;2.65;;;;;;;10.06;100.00;99562.94;5207057;28;20480;-77
2023/12/13 04:24:06;;;;;;;21.13;3.63;;;;;;;10.16;100.00;99564.47;5208686;28;20028;-77
2023/12/13 04:26:39;;;;;;;30.23;3.58;;;;;;;10.08;100.00;99563.56;5206578;28;20029;-77
2023/12/13 04:29:09;;;;;;;20.98;3.63;;;;;;;10.14;100.00;99567.34;5204774;28;20512;-77
2023/12/13 04:31:41;;;;;;;12.25;2.95;;;;;;;10.04;100.00;99566.81;5210487;28;20227;-77
2023/12/13 04:34:12;;;;;;;23.92;3.10;;;;;;;10.09;100.00;99562.56;5207101;28;20238;-77
2023/12/13 04:36:42;;;;;;;22.08;4.82;;;;;;;9.94;100.00;99566.34;5211243;28;20037;-77
2023/12/13 04:39:13;;;;;;;24.75;5.35;;;;;;;9.90;100.00;99562.41;5203683;28;20114;-77
2023/12/13 04:41:43;;;;;;;17.27;3.42;;;;;;;10.00;100.00;99561.06;5207185;28;20392;-77
2023/12/13 04:44:14;;;;;;;28.38;4.95;;;;;;;10.01;100.00;99557.34;5207274;28;20018;-77
2023/12/13 04:46:44;;;;;;;21.73;4.45;;;;;;;9.89;100.00;99552.69;5205170;28;20025;-77
2023/12/13 04:49:15;;;;;;;22.67;4.53;;;;;;;9.95;100.00;99555.44;5205632;28;20404;-77
2023/12/13 04:51:45;;;;;;;19.17;2.85;;;;;;;9.94;100.00;99563.66;5204624;28;20500;-76
2023/12/13 04:54:16;;;;;;;22.90;3.33;;;;;;;9.96;100.00;99559.78;5204402;28;20022;-76
2023/12/13 04:56:46;;;;;;;21.13;3.22;;;;;;;9.95;100.00;99562.66;5210515;28;20025;-76
2023/12/13 04:59:17;;;;;;;27.85;3.88;;;;;;;9.94;100.00;99564.50;5200504;28;20025;-77
2023/12/13 05:01:47;;;;;;;19.05;3.10;;;;;;;9.92;100.00;99568.38;5225719;28;20020;-77
2023/12/13 05:04:18;;;;;;;29.73;4.13;;;;;;;9.95;100.00;99563.47;5204891;28;20095;-77
2023/12/13 05:06:48;;;;;;;17.38;3.15;;;;;;;9.98;100.00;99568.44;5209056;28;20032;-77
2023/12/13 05:09:19;;;;;;;19.88;3.67;;;;;;;9.95;100.00;99565.34;5203409;28;20025;-77
2023/12/13 05:11:49;;;;;;;27.77;3.50;;;;;;;9.96;100.00;99559.78;5204355;28;20056;-77
2023/12/13 05:14:20;;;;;;;23.35;3.88;;;;;;;9.94;100.00;99558.28;5207091;28;20021;-77
2023/12/13 05:16:50;;;;;;;17.38;2.83;;;;;;;9.96;100.00;99554.41;5207203;28;20022;-77
2023/12/13 05:19:21;;;;;;;19.38;3.10;;;;;;;9.96;100.00;99557.09;5209968;28;20029;-77
2023/12/13 05:21:51;;;;;;;20.17;3.33;;;;;;;9.99;100.00;99554.03;5207418;28;20025;-77
2023/12/13 05:24:22;;;;;;;32.78;4.95;;;;;;;9.92;100.00;99550.47;5210172;28;20025;-77
2023/12/13 05:26:52;;;;;;;22.52;4.22;;;;;;;9.87;100.00;99547.53;5210479;28;20040;-77
2023/12/13 05:29:23;;;;;;;20.20;3.80;;;;;;;9.88;100.00;99551.88;5210395;28;20033;-77
2023/12/13 05:31:54;;;;;;;22.60;3.67;;;;;;;9.94;100.00;99552.94;5212082;28;20044;-77
2023/12/13 05:34:24;;;;;;;20.92;3.90;;;;;;;9.95;100.00;99546.59;5210972;28;20029;-77
2023/12/13 05:36:55;;;;;;;24.75;3.40;;;;;;;9.96;100.00;99550.91;5211936;28;20025;-77
2023/12/13 05:39:25;;;;;;;32.03;4.32;;;;;;;9.95;100.00;99552.75;5208280;28;20477;-77
2023/12/13 05:41:56;;;;;;;28.35;4.40;;;;;;;9.93;100.00;99556.66;5208198;28;20024;-76
2023/12/13 05:44:27;;;;;;;28.77;4.20;;;;;;;9.93;100.00;99556.66;5208614;28;20018;-77
2023/12/13 05:47:00;;;;;;;20.10;4.22;;;;;;;9.95;100.00;99558.13;5209677;28;21837;-77
2023/12/13 05:49:30;;;;;;;22.42;3.67;;;;;;;9.96;100.00;99550.91;5209490;28;20017;-77
2023/12/13 05:52:01;;;;;;;18.75;3.58;;;;;;;9.92;100.00;99563.03;5208247;28;20036;-77
2023/12/13 05:54:31;;;;;;;30.98;4.00;;;;;;;9.89;100.00;99558.03;5208229;28;20021;-77
2023/12/13 05:57:02;;;;;;;22.27;3.80;;;;;;;9.84;100.00;99551.44;5209652;28;20587;-77
2023/12/13 05:59:33;;;;;;;23.52;4.30;;;;;;;9.83;100.00;99559.66;5205425;28;20031;-77
2023/12/13 06:02:03;;;;;;;24.80;5.68;;;;;;;9.81;100.00;99554.50;5211586;28;20032;-75
2023/12/13 06:04:34;;;;;;;25.40;4.15;;;;;;;9.83;100.00;99556.97;5211748;28;20518;-77
2023/12/13 06:07:05;;;;;;;27.75;5.13;;;;;;;9.85;100.00;99557.63;5208806;28;20027;-77
2023/12/13 06:09:35;;;;;;;18.50;5.65;;;;;;;9.84;100.00;99555.97;5211085;28;20037;-77
2023/12/13 06:12:06;;;;;;;20.80;3.78;;;;;;;9.81;100.00;99557.16;5206589;28;20104;-77
2023/12/13 06:14:37;;;;;;;16.05;3.85;;;;;;;9.85;100.00;99552.28;5211215;28;20029;-77
2023/12/13 06:17:07;;;;;;;21.13;4.57;;;;;;;9.82;100.00;99549.97;5210494;28;20369;-77
2023/12/13 06:19:38;;;;;;;26.02;4.03;;;;;;;9.84;100.00;99556.81;5210396;28;20048;-77
2023/12/13 06:22:10;;;;;;;17.98;3.58;;;;;;;9.88;100.00;99559.91;5210802;28;20428;-77
2023/12/13 06:24:40;;;;;;;27.33;4.65;;;;;;;9.83;100.00;99554.28;5198136;28;20654;-77
2023/12/13 06:27:11;;;;;;;23.98;4.00;;;;;;;9.82;100.00;99558.81;5208315;28;20021;-77
2023/12/13 06:29:41;;;;;;;16.20;3.60;;;;;;;9.77;100.00;99558.56;5206991;28;20036;-77
2023/12/13 06:32:12;;;;;;;29.30;4.95;;;;;;;9.80;100.00;99565.41;5201304;28;20415;-76
2023/12/13 06:34:43;;;;;;;20.77;3.90;;;;;;;9.77;100.00;99555.06;5207226;28;20017;-77
2023/12/13 06:37:13;;;;;;;25.95;4.65;;;;;;;9.76;100.00;99551.56;5207404;28;20037;-77
2023/12/13 06:39:44;;;;;;;29.85;4.32;;;;;;;9.78;100.00;99557.53;5210757;28;20049;-77
2023/12/13 06:42:15;;;;;;;27.55;5.47;;;;;;;9.86;100.00;99556.59;5205388;28;20531;-77
2023/12/13 06:44:45;;;;;;;21.15;5.57;;;;;;;9.80;100.00;99557.38;5207433;28;20462;-77
2023/12/13 06:47:16;;;;;;;22.35;4.60;;;;;;;9.76;100.00;99548.06;5204044;28;20056;-77
2023/12/13 06:49:47;;;;;;;18.65;4.10;;;;;;;9.80;100.00;99552.03;5211403;28;20036;-77
2023/12/13 06:52:17;;;;;;;27.58;4.60;;;;;;;9.83;100.00;99557.78;5204993;28;20033;-77
2023/12/13 06:54:48;;;;;;;29.00;4.70;;;;;;;9.89;100.00;99558.03;5208397;28;20025;-77
2023/12/13 06:57:19;;;;;;;28.45;6.25;;;;;;;9.82;100.00;99556.16;5204369;28;20155;-77
2023/12/13 06:59:50;;;;;;;21.98;4.03;;;;;;;9.85;100.00;99558.44;5204416;28;20112;-77
2023/12/13 07:02:20;;;;;;;27.40;4.68;;;;;;;9.76;100.00;99558.78;5204821;28;20109;-77
2023/12/13 07:04:51;;;;;;;21.33;4.72;;;;;;;9.77;100.00;99561.25;5206557;28;20603;-77
2023/12/13 07:07:22;;;;;;;20.10;4.25;;;;;;;9.81;100.00;99562.53;5205981;28;20028;-76
2023/12/13 07:09:53;;;;;;;26.42;4.30;;;;;;;9.81;100.00;99567.88;5206925;28;20246;-76
2023/12/13 07:12:27;;;;;;;24.08;3.83;;;;;;;9.81;100.00;99562.53;5205907;28;20021;-77
2023/12/13 07:14:58;;;;;;;24.08;4.25;;;;;;;9.81;100.00;99565.22;5205774;28;20021;-76
2023/12/13 07:17:29;;;;;;;19.70;4.25;;;;;;;9.81;100.00;99559.84;5209596;28;20101;-76
2023/12/13 07:19:59;;;;;;;28.10;4.55;;;;;;;9.79;100.00;99569.94;5207387;28;20028;-76
2023/12/13 07:22:30;;;;;;;28.02;5.68;;;;;;;9.86;100.00;99572.66;5209485;28;20490;-77
2023/12/13 07:25:05;;;;;;;24.00;4.57;;;;;;;9.84;100.00;99566.69;5201746;28;20057;-77
2023/12/13 07:27:35;;;;;;;15.45;4.07;;;;;;;9.86;100.00;99576.16;5207736;28;20034;-77
2023/12/13 07:30:07;;;;;;;25.17;4.40;;;;;;;9.89;100.00;99574.97;5201780;28;20036;-77
2023/12/13 07:32:43;;;;;;;28.00;4.55;;;;;;;9.98;100.00;99581.81;5203871;28;20037;-77
2023/12/13 07:35:14;;;;;;;21.58;4.82;;;;;;;9.86;100.00;99578.03;5206995;28;20044;-77
2023/12/13 07:37:46;;;;;;;16.25;3.47;;;;;;;9.85;100.00;99581.72;5209915;28;20029;-77
2023/12/13 07:40:16;;;;;;;25.20;4.05;;;;;;;9.82;100.00;99576.75;5205202;28;20014;-77
2023/12/13 07:42:47;;;;;;;28.85;3.78;;;;;;;9.80;100.00;99579.63;5224567;28;20480;-77
2023/12/13 07:45:20;;;;;;;25.13;4.20;;;;;;;9.83;100.00;99575.72;5203841;28;20647;-77
2023/12/13 07:47:51;;;;;;;19.02;4.45;;;;;;;9.79;100.00;99575.31;5203601;28;20512;-77
2023/12/13 07:50:21;;;;;;;20.33;4.45;;;;;;;9.84;100.00;99583.59;5215584;28;20074;-77
2023/12/13 07:52:52;;;;;;;16.90;3.95;;;;;;;9.82;100.00;99572.22;5211745;28;20032;-77
2023/12/13 07:55:23;;;;;;;26.25;4.40;;;;;;;9.86;100.00;99578.03;5209481;28;20018;-77
2023/12/13 07:57:53;;;;;;;19.65;4.82;;;;;;;9.82;100.00;99585.59;5211346;28;20074;-77
2023/12/13 08:00:24;;;;;;;28.40;4.53;;;;;;;9.89;100.00;99591.06;5208583;28;20029;-77
2023/12/13 08:02:55;;;;;;;20.85;3.72;;;;;;;9.88;100.00;99584.00;5209170;28;20491;-77
2023/12/13 08:05:25;;;;;;;14.02;4.78;;;;;;;9.90;100.00;99586.53;5207607;28;20031;-77
2023/12/13 08:07:56;;;;;;;24.45;3.78;;;;;;;9.84;100.00;99583.59;5209007;28;20037;-77
2023/12/13 08:10:26;;;;;;;19.05;4.22;;;;;;;9.83;100.00;99586.44;5213452;28;20052;-77
2023/12/13 08:12:57;;;;;;;28.77;4.85;;;;;;;9.80;100.00;99587.66;5210321;28;20032;-77
2023/12/13 08:15:27;;;;;;;30.50;5.30;;;;;;;9.82;100.00;99590.13;5211124;28;20103;-77
2023/12/13 08:17:57;;;;;;;31.42;4.70;;;;;;;9.76;100.00;99599.78;5212912;28;20028;-77
2023/12/13 08:20:29;;;;;;;21.67;3.75;;;;;;;9.75;100.00;99589.25;5202332;28;20455;-77
2023/12/13 08:23:03;;;;;;;23.85;3.95;;;;;;;9.78;100.00;99594.22;5212196;28;20029;-77
2023/12/13 08:25:34;;;;;;;31.15;5.10;;;;;;;9.79;100.00;99596.72;5203403;28;20025;-77
2023/12/13 08:28:04;;;;;;;27.70;5.20;;;;;;;9.78;100.00;99591.53;5208118;28;20515;-77
2023/12/13 08:30:35;;;;;;;17.75;3.97;;;;;;;9.85;100.00;99595.94;5209959;28;20032;-76
2023/12/13 08:33:06;;;;;;;28.23;4.88;;;;;;;9.83;100.00;99607.88;5208275;28;20025;-76
2023/12/13 08:35:36;;;;;;;18.73;4.13;;;;;;;9.85;100.00;99606.66;5212627;28;20512;-76
2023/12/13 08:38:07;;;;;;;16.77;4.07;;;;;;;9.90;100.00;99603.41;5217578;28;20033;-76
2023/12/13 08:40:39;;;;;;;18.35;3.92;;;;;;;9.92;100.00;99600.53;5213587;28;20384;-77
2023/12/13 08:43:09;;;;;;;31.90;5.97;;;;;;;9.92;100.00;99605.91;5213889;28;20327;-76
2023/12/13 08:45:41;;;;;;;17.33;4.53;;;;;;;9.93;100.00;99608.38;5208522;28;20406;-76
2023/12/13 08:48:12;;;;;;;23.27;3.80;;;;;;;9.88;100.00;99609.97;5213905;28;20103;-77
2023/12/13 08:50:43;;;;;;;18.05;4.20;;;;;;;9.85;100.00;99603.16;5209867;28;20396;-76
2023/12/13 08:53:13;;;;;;;17.67;3.67;;;;;;;9.90;100.00;99610.63;5208553;28;20021;-77
2023/12/13 08:55:44;;;;;;;22.63;4.28;;;;;;;9.96;100.00;99616.03;5213378;28;20419;-76
2023/12/13 08:58:14;;;;;;;18.13;3.38;;;;;;;9.89;100.00;99617.84;5204545;28;20042;-76
2023/12/13 09:00:45;;;;;;;22.40;4.07;;;;;;;9.86;100.00;99626.25;5193026;28;20049;-76
2023/12/13 09:03:15;;;;;;;19.65;3.97;;;;;;;9.90;100.00;99624.84;5208546;28;20025;-77
2023/12/13 09:05:46;;;;;;;18.70;3.70;;;;;;;9.96;100.00;99629.44;5203525;28;20028;-76
2023/12/13 09:08:16;;;;;;;17.83;3.35;;;;;;;9.89;100.00;99625.88;5212766;28;20031;-76
2023/12/13 09:10:47;;;;;;;22.48;3.83;;;;;;;9.87;100.00;99627.91;5207493;28;20408;-77
2023/12/13 09:13:17;;;;;;;28.83;4.05;;;;;;;9.81;100.00;99636.69;5206641;28;20351;-76
2023/12/13 09:15:48;;;;;;;15.80;3.80;;;;;;;9.84;100.00;99630.97;5210003;28;20021;-76
2023/12/13 09:18:19;;;;;;;22.08;5.05;;;;;;;9.91;100.00;99637.22;5208213;28;20487;-77
2023/12/13 09:20:49;;;;;;;27.05;4.20;;;;;;;9.92;100.00;99638.88;5211433;28;20037;-77
2023/12/13 09:23:23;;;;;;;20.77;4.22;;;;;;;9.98;100.00;99642.63;5211195;28;20465;-77
2023/12/13 09:25:54;;;;;;;19.67;3.70;;;;;;;9.93;100.00;99640.53;5202884;28;20060;-76
2023/12/13 09:28:24;;;;;;;19.48;4.32;;;;;;;9.83;100.00;99635.47;5205812;28;20413;-77
2023/12/13 09:30:55;;;;;;;23.95;4.28;;;;;;;9.88;100.00;99639.44;5204638;28;20026;-76
2023/12/13 09:33:25;;;;;;;21.60;4.00;;;;;;;9.91;100.00;99642.56;5206162;28;20017;-77
2023/12/13 09:35:56;;;;;;;18.48;4.72;;;;;;;9.95;100.00;99638.50;5212149;28;20025;-76
2023/12/13 09:38:26;;;;;;;25.85;5.35;;;;;;;9.94;100.00;99633.31;5208576;28;20515;-76
2023/12/13 09:40:57;;;;;;;28.88;4.97;;;;;;;9.92;100.00;99641.53;5207143;28;20120;-76
2023/12/13 09:43:28;;;;;;;19.35;5.05;;;;;;;9.94;100.00;99644.88;5208435;28;20384;-77
2023/12/13 09:45:58;;;;;;;22.50;4.70;;;;;;;9.96;100.00;99645.50;5208965;28;20048;-77
2023/12/13 09:48:30;;;;;;;20.73;4.20;;;;;;;9.99;100.00;99650.50;5208419;28;20032;-76
2023/12/13 09:51:04;;;;;;;23.48;4.80;;;;;;;9.99;100.00;99655.84;5209021;28;20021;-76
2023/12/13 09:53:38;;;;;;;26.20;5.05;;;;;;;9.95;100.00;99657.25;5207423;28;20035;-77
2023/12/13 09:56:09;;;;;;;22.60;5.22;;;;;;;9.93;100.00;99661.13;5207684;28;20380;-77
2023/12/13 09:58:40;;;;;;;32.40;6.25;;;;;;;9.88;100.00;99664.38;5210486;28;20036;-77
2023/12/13 10:01:12;;;;;;;28.40;6.07;;;;;;;9.94;100.00;99662.78;5208750;28;20075;-76
2023/12/13 10:03:43;;;;;;;16.88;5.90;;;;;;;9.89;100.00;99666.06;5209726;28;20024;-77
2023/12/13 10:06:15;;;;;;;20.60;5.45;;;;;;;9.92;100.00;99675.53;5208466;28;20052;-78
2023/12/13 10:08:54;;;;;;;22.48;5.55;;;;;;;10.02;100.00;99673.38;5210980;28;20031;-76
2023/12/13 10:11:25;;;;;;;17.50;4.95;;;;;;;9.95;100.00;99677.84;5206202;28;20112;-77
2023/12/13 10:13:56;;;;;;;18.30;5.60;;;;;;;9.98;100.00;99669.41;5203539;28;20036;-77
2023/12/13 10:16:28;;;;;;;23.98;6.25;;;;;;;9.98;100.00;99670.25;5207944;28;20416;-77
2023/12/13 10:18:59;;;;;;;22.90;5.70;;;;;;;10.16;100.00;99677.03;5209093;28;20136;-77
2023/12/13 10:21:33;;;;;;;16.77;4.72;;;;;;;10.10;100.00;99667.91;5206135;28;20033;-77
2023/12/13 10:24:06;;;;;;;14.43;5.28;;;;;;;10.15;100.00;99670.00;5206048;28;20101;-77
2023/12/13 10:26:40;;;;;;;19.17;5.80;;;;;;;10.31;100.00;99667.09;5207161;28;20119;-77
2023/12/13 10:29:11;;;;;;;26.25;5.90;;;;;;;10.34;100.00;99667.53;5208001;28;20059;-77
2023/12/13 10:31:45;;;;;;;20.80;5.22;;;;;;;10.42;100.00;99668.41;5210408;28;20380;-77
2023/12/13 10:34:16;;;;;;;15.95;5.22;;;;;;;10.55;100.00;99665.84;5208281;28;20029;-77
2023/12/13 10:36:49;;;;;;;23.17;4.72;;;;;;;10.54;100.00;99667.72;5207632;28;20282;-76
2023/12/13 10:39:23;;;;;;;15.60;5.57;;;;;;;10.53;100.00;99673.25;5202712;28;20367;-77
2023/12/13 10:41:56;;;;;;;16.75;5.18;;;;;;;10.56;100.00;99665.66;5208238;28;20037;-77
2023/12/13 10:44:31;;;;;;;17.80;5.10;;;;;;;10.65;100.00;99660.16;5233277;28;20021;-77
2023/12/13 10:47:08;;;;;;;20.63;5.30;;;;;;;10.62;100.00;99672.91;5209205;28;20037;-77
2023/12/13 10:49:42;;;;;;;17.25;4.93;;;;;;;10.67;100.00;99676.88;5208531;28;20504;-77
2023/12/13 10:52:15;;;;;;;14.65;4.68;;;;;;;10.56;100.00;99668.31;5210136;28;20024;-77
2023/12/13 10:54:47;;;;;;;22.20;5.20;;;;;;;10.65;100.00;99666.34;5215385;28;20063;-77
2023/12/13 10:57:18;;;;;;;21.25;6.40;;;;;;;10.77;100.00;99669.28;5207947;28;20025;-77
2023/12/13 10:59:51;;;;;;;18.48;4.75;;;;;;;10.65;100.00;99665.50;5211506;28;20025;-77
2023/12/13 11:02:26;;;;;;;19.98;5.13;;;;;;;10.69;100.00;99667.56;5209754;28;20048;-77
2023/12/13 11:04:57;;;;;;;18.45;4.75;;;;;;;10.69;100.00;99666.75;5204527;28;20258;-77
2023/12/13 11:07:27;;;;;;;17.42;4.07;;;;;;;10.61;100.00;99670.44;5203643;28;20562;-76
2023/12/13 11:10:00;;;;;;;18.30;4.53;;;;;;;10.65;100.00;99670.88;5208507;28;20107;-77
2023/12/13 11:12:31;;;;;;;23.98;5.00;;;;;;;10.58;100.00;99665.44;5206428;28;20016;-77
2023/12/13 11:15:12;;;;;;;23.75;4.75;;;;;;;10.55;100.00;99671.22;5205484;28;20027;-77
2023/12/13 11:17:48;;;;;;;23.98;5.18;;;;;;;10.51;100.00;99670.75;5205315;28;20112;-77
2023/12/13 11:20:20;;;;;;;24.95;4.82;;;;;;;10.51;100.00;99669.94;5193788;28;20025;-77
2023/12/13 11:22:54;;;;;;;19.77;5.05;;;;;;;10.48;100.00;99665.78;5209426;28;20028;-76
2023/12/13 11:25:34;;;;;;;20.08;5.25;;;;;;;10.44;100.00;99675.25;5199073;28;20072;-76
2023/12/13 11:28:04;;;;;;;18.95;4.63;;;;;;;10.50;100.00;99671.78;5195736;28;20053;-77
2023/12/13 11:30:41;;;;;;;14.13;4.40;;;;;;;10.41;100.00;99672.13;5207353;28;20559;-76
2023/12/13 11:33:11;;;;;;;13.85;4.78;;;;;;;10.40;100.00;99676.66;5209667;28;20036;-77
2023/12/13 11:35:45;;;;;;;15.90;4.80;;;;;;;10.49;100.00;99678.19;5207755;28;20021;-76
2023/12/13 11:38:17;;;;;;;22.33;4.43;;;;;;;10.56;100.00;99673.69;5205363;28;20121;-76
2023/12/13 11:40:47;;;;;;;19.15;4.07;;;;;;;10.55;100.00;99669.34;5206372;28;20033;-77